Mozelle, Texas
Current Conditions -  °F | °C
As of 7:35 PM on Thursday 27 Nov 2014 (Local Time) from KCOM Reporting Station
Clear Clear  
Wind Chill: 49°   Ceiling: Unl
Heat Index: 49°   Visibility: 10mi
Dew Point: 36°   Wind: 3mph
Humidity: 61%   Direction: 160°SSE
Pressure: 30.36"   Gusts: NA
Location:  31.8779°N, 99.43°W
Report Text: KCOM 280135Z AUTO 16003KT 10SM CLR 10/02 A3036 RMK AO2 T00970024
Loading
Personal Weather Stations






























Interactive Weather Map New forecast layout! Learn more

10-Day Weather Forecast

Advertisements
Track Severe Weather on mobile